sensor_id;sensor_type;location;lat;lon;timestamp;P1;durP1;ratioP1;P2;durP2;ratioP2
13592;SDS011;6867;50.998;4.250;2024-03-02T00:01:24;0.90;;;0.60;;
13592;SDS011;6867;50.998;4.250;2024-03-02T00:03:51;0.77;;;0.60;;
13592;SDS011;6867;50.998;4.250;2024-03-02T00:06:18;1.43;;;0.50;;
13592;SDS011;6867;50.998;4.250;2024-03-02T00:08:46;1.50;;;0.87;;
13592;SDS011;6867;50.998;4.250;2024-03-02T00:11:13;1.83;;;0.70;;
13592;SDS011;6867;50.998;4.250;2024-03-02T00:13:41;0.57;;;0.57;;
13592;SDS011;6867;50.998;4.250;2024-03-02T00:16:10;0.90;;;0.50;;
13592;SDS011;6867;50.998;4.250;2024-03-02T00:18:38;2.00;;;0.50;;
13592;SDS011;6867;50.998;4.250;2024-03-02T00:21:05;1.77;;;0.70;;
13592;SDS011;6867;50.998;4.250;2024-03-02T00:23:34;0.60;;;0.50;;
13592;SDS011;6867;50.998;4.250;2024-03-02T00:26:02;0.70;;;0.50;;
13592;SDS011;6867;50.998;4.250;2024-03-02T00:28:29;1.37;;;0.60;;
13592;SDS011;6867;50.998;4.250;2024-03-02T00:31:00;1.03;;;0.80;;
13592;SDS011;6867;50.998;4.250;2024-03-02T00:33:32;0.60;;;0.53;;
13592;SDS011;6867;50.998;4.250;2024-03-02T00:36:02;0.50;;;0.50;;
13592;SDS011;6867;50.998;4.250;2024-03-02T00:38:30;1.13;;;0.70;;
13592;SDS011;6867;50.998;4.250;2024-03-02T00:40:58;1.83;;;0.70;;
13592;SDS011;6867;50.998;4.250;2024-03-02T00:43:42;2.20;;;0.97;;
13592;SDS011;6867;50.998;4.250;2024-03-02T00:46:12;0.50;;;0.50;;
13592;SDS011;6867;50.998;4.250;2024-03-02T00:48:40;1.13;;;0.60;;
13592;SDS011;6867;50.998;4.250;2024-03-02T00:51:18;0.77;;;0.70;;
13592;SDS011;6867;50.998;4.250;2024-03-02T00:53:45;1.80;;;0.80;;
13592;SDS011;6867;50.998;4.250;2024-03-02T00:56:12;1.03;;;0.70;;
13592;SDS011;6867;50.998;4.250;2024-03-02T00:58:40;0.80;;;0.60;;
13592;SDS011;6867;50.998;4.250;2024-03-02T01:01:06;1.00;;;0.60;;
13592;SDS011;6867;50.998;4.250;2024-03-02T01:03:33;0.80;;;0.70;;
13592;SDS011;6867;50.998;4.250;2024-03-02T01:06:00;0.50;;;0.40;;
13592;SDS011;6867;50.998;4.250;2024-03-02T01:08:28;2.13;;;0.70;;
13592;SDS011;6867;50.998;4.250;2024-03-02T01:10:55;1.20;;;0.53;;
13592;SDS011;6867;50.998;4.250;2024-03-02T01:13:22;0.60;;;0.50;;
13592;SDS011;6867;50.998;4.250;2024-03-02T01:15:49;1.10;;;0.50;;
13592;SDS011;6867;50.998;4.250;2024-03-02T01:18:16;1.80;;;0.40;;
13592;SDS011;6867;50.998;4.250;2024-03-02T01:20:43;0.50;;;0.50;;
13592;SDS011;6867;50.998;4.250;2024-03-02T01:23:10;0.80;;;0.40;;
13592;SDS011;6867;50.998;4.250;2024-03-02T01:25:38;0.50;;;0.50;;
13592;SDS011;6867;50.998;4.250;2024-03-02T01:28:05;0.33;;;0.33;;
13592;SDS011;6867;50.998;4.250;2024-03-02T01:30:32;0.33;;;0.33;;
13592;SDS011;6867;50.998;4.250;2024-03-02T01:32:58;0.50;;;0.50;;
13592;SDS011;6867;50.998;4.250;2024-03-02T01:35:25;0.50;;;0.50;;
13592;SDS011;6867;50.998;4.250;2024-03-02T01:37:52;0.97;;;0.67;;
13592;SDS011;6867;50.998;4.250;2024-03-02T01:40:19;1.17;;;0.70;;
13592;SDS011;6867;50.998;4.250;2024-03-02T01:42:47;0.50;;;0.50;;
13592;SDS011;6867;50.998;4.250;2024-03-02T01:45:14;0.47;;;0.47;;
13592;SDS011;6867;50.998;4.250;2024-03-02T01:47:41;1.10;;;0.80;;
13592;SDS011;6867;50.998;4.250;2024-03-02T01:50:07;0.70;;;0.40;;
13592;SDS011;6867;50.998;4.250;2024-03-02T01:52:37;1.30;;;0.60;;
13592;SDS011;6867;50.998;4.250;2024-03-02T01:55:09;2.03;;;0.50;;
13592;SDS011;6867;50.998;4.250;2024-03-02T01:57:36;1.10;;;0.67;;
13592;SDS011;6867;50.998;4.250;2024-03-02T02:00:04;2.17;;;0.70;;
13592;SDS011;6867;50.998;4.250;2024-03-02T02:02:34;2.33;;;0.70;;
13592;SDS011;6867;50.998;4.250;2024-03-02T02:05:01;1.00;;;0.80;;
13592;SDS011;6867;50.998;4.250;2024-03-02T02:07:28;0.60;;;0.60;;
13592;SDS011;6867;50.998;4.250;2024-03-02T02:09:55;0.47;;;0.47;;
13592;SDS011;6867;50.998;4.250;2024-03-02T02:12:22;2.53;;;0.60;;
13592;SDS011;6867;50.998;4.250;2024-03-02T02:14:49;0.70;;;0.60;;
13592;SDS011;6867;50.998;4.250;2024-03-02T02:17:17;1.00;;;0.70;;
13592;SDS011;6867;50.998;4.250;2024-03-02T02:19:44;0.90;;;0.60;;
13592;SDS011;6867;50.998;4.250;2024-03-02T02:22:12;0.50;;;0.50;;
13592;SDS011;6867;50.998;4.250;2024-03-02T02:24:39;1.40;;;0.80;;
13592;SDS011;6867;50.998;4.250;2024-03-02T02:27:06;3.57;;;0.90;;
13592;SDS011;6867;50.998;4.250;2024-03-02T02:29:33;2.13;;;0.80;;
13592;SDS011;6867;50.998;4.250;2024-03-02T02:32:00;2.13;;;0.87;;
13592;SDS011;6867;50.998;4.250;2024-03-02T02:34:26;0.80;;;0.80;;
13592;SDS011;6867;50.998;4.250;2024-03-02T02:36:53;2.13;;;0.83;;
13592;SDS011;6867;50.998;4.250;2024-03-02T02:39:21;0.87;;;0.50;;
13592;SDS011;6867;50.998;4.250;2024-03-02T02:41:48;1.77;;;0.70;;
13592;SDS011;6867;50.998;4.250;2024-03-02T02:44:15;2.10;;;0.80;;
13592;SDS011;6867;50.998;4.250;2024-03-02T02:46:42;1.70;;;0.70;;
13592;SDS011;6867;50.998;4.250;2024-03-02T02:49:08;1.87;;;0.60;;
13592;SDS011;6867;50.998;4.250;2024-03-02T02:51:35;1.50;;;0.77;;
13592;SDS011;6867;50.998;4.250;2024-03-02T02:54:02;1.13;;;0.70;;
13592;SDS011;6867;50.998;4.250;2024-03-02T02:56:30;1.33;;;0.50;;
13592;SDS011;6867;50.998;4.250;2024-03-02T02:58:57;1.70;;;0.60;;
13592;SDS011;6867;50.998;4.250;2024-03-02T03:01:23;1.63;;;0.90;;
13592;SDS011;6867;50.998;4.250;2024-03-02T03:03:50;2.20;;;0.90;;
13592;SDS011;6867;50.998;4.250;2024-03-02T03:06:17;1.30;;;0.67;;
13592;SDS011;6867;50.998;4.250;2024-03-02T03:08:44;3.17;;;0.80;;
13592;SDS011;6867;50.998;4.250;2024-03-02T03:11:10;2.13;;;0.80;;
13592;SDS011;6867;50.998;4.250;2024-03-02T03:13:38;2.93;;;1.00;;
13592;SDS011;6867;50.998;4.250;2024-03-02T03:16:05;2.10;;;0.80;;
13592;SDS011;6867;50.998;4.250;2024-03-02T03:18:32;4.37;;;0.90;;
13592;SDS011;6867;50.998;4.250;2024-03-02T03:20:59;0.67;;;0.67;;
13592;SDS011;6867;50.998;4.250;2024-03-02T03:23:25;0.90;;;0.70;;
13592;SDS011;6867;50.998;4.250;2024-03-02T03:25:52;3.17;;;0.63;;
13592;SDS011;6867;50.998;4.250;2024-03-02T03:28:19;3.50;;;0.87;;
13592;SDS011;6867;50.998;4.250;2024-03-02T03:30:47;4.77;;;1.00;;
13592;SDS011;6867;50.998;4.250;2024-03-02T03:33:13;1.80;;;0.70;;
13592;SDS011;6867;50.998;4.250;2024-03-02T03:35:40;3.07;;;0.83;;
13592;SDS011;6867;50.998;4.250;2024-03-02T03:38:07;2.67;;;0.80;;
13592;SDS011;6867;50.998;4.250;2024-03-02T03:40:33;1.80;;;1.00;;
13592;SDS011;6867;50.998;4.250;2024-03-02T03:43:00;1.37;;;0.97;;
13592;SDS011;6867;50.998;4.250;2024-03-02T03:45:27;1.30;;;1.20;;
13592;SDS011;6867;50.998;4.250;2024-03-02T03:47:56;3.17;;;1.27;;
13592;SDS011;6867;50.998;4.250;2024-03-02T03:50:23;0.90;;;0.80;;
13592;SDS011;6867;50.998;4.250;2024-03-02T03:52:50;1.73;;;1.17;;
13592;SDS011;6867;50.998;4.250;2024-03-02T03:55:17;4.00;;;1.00;;
13592;SDS011;6867;50.998;4.250;2024-03-02T03:57:44;1.77;;;1.00;;
13592;SDS011;6867;50.998;4.250;2024-03-02T04:00:11;2.10;;;0.80;;
13592;SDS011;6867;50.998;4.250;2024-03-02T04:02:38;6.77;;;1.10;;
13592;SDS011;6867;50.998;4.250;2024-03-02T04:05:06;2.87;;;0.87;;
13592;SDS011;6867;50.998;4.250;2024-03-02T04:07:35;3.33;;;1.10;;
13592;SDS011;6867;50.998;4.250;2024-03-02T04:10:06;2.63;;;0.90;;
13592;SDS011;6867;50.998;4.250;2024-03-02T04:12:34;3.67;;;0.70;;
13592;SDS011;6867;50.998;4.250;2024-03-02T04:15:02;3.17;;;0.87;;
13592;SDS011;6867;50.998;4.250;2024-03-02T04:17:31;2.80;;;1.00;;
13592;SDS011;6867;50.998;4.250;2024-03-02T04:19:58;2.90;;;0.90;;
13592;SDS011;6867;50.998;4.250;2024-03-02T04:22:27;4.50;;;0.87;;
13592;SDS011;6867;50.998;4.250;2024-03-02T04:24:54;3.10;;;1.03;;
13592;SDS011;6867;50.998;4.250;2024-03-02T04:27:20;2.10;;;1.20;;
13592;SDS011;6867;50.998;4.250;2024-03-02T04:29:47;1.57;;;0.90;;
13592;SDS011;6867;50.998;4.250;2024-03-02T04:32:14;4.50;;;1.30;;
13592;SDS011;6867;50.998;4.250;2024-03-02T04:34:41;1.00;;;0.80;;
13592;SDS011;6867;50.998;4.250;2024-03-02T04:37:08;2.37;;;0.90;;
13592;SDS011;6867;50.998;4.250;2024-03-02T04:39:37;3.30;;;0.80;;
13592;SDS011;6867;50.998;4.250;2024-03-02T04:42:04;1.30;;;0.80;;
13592;SDS011;6867;50.998;4.250;2024-03-02T04:44:33;2.93;;;1.07;;
13592;SDS011;6867;50.998;4.250;2024-03-02T04:47:03;3.70;;;0.63;;
13592;SDS011;6867;50.998;4.250;2024-03-02T04:49:30;2.43;;;1.10;;
13592;SDS011;6867;50.998;4.250;2024-03-02T04:51:57;3.40;;;0.70;;
13592;SDS011;6867;50.998;4.250;2024-03-02T04:54:24;4.27;;;1.00;;
13592;SDS011;6867;50.998;4.250;2024-03-02T04:56:52;5.70;;;0.90;;
13592;SDS011;6867;50.998;4.250;2024-03-02T04:59:18;1.00;;;0.70;;
13592;SDS011;6867;50.998;4.250;2024-03-02T05:01:45;2.40;;;0.70;;
13592;SDS011;6867;50.998;4.250;2024-03-02T05:04:13;4.13;;;1.23;;
13592;SDS011;6867;50.998;4.250;2024-03-02T05:06:40;2.00;;;0.80;;
13592;SDS011;6867;50.998;4.250;2024-03-02T05:09:07;1.87;;;0.97;;
13592;SDS011;6867;50.998;4.250;2024-03-02T05:11:34;2.53;;;0.77;;
13592;SDS011;6867;50.998;4.250;2024-03-02T05:14:28;5.70;;;1.23;;
13592;SDS011;6867;50.998;4.250;2024-03-02T05:16:54;0.63;;;0.57;;
13592;SDS011;6867;50.998;4.250;2024-03-02T05:19:21;1.60;;;0.73;;
13592;SDS011;6867;50.998;4.250;2024-03-02T05:21:48;2.20;;;0.80;;
13592;SDS011;6867;50.998;4.250;2024-03-02T05:24:15;4.30;;;1.00;;
13592;SDS011;6867;50.998;4.250;2024-03-02T05:26:41;2.17;;;0.90;;
13592;SDS011;6867;50.998;4.250;2024-03-02T05:29:08;2.07;;;0.70;;
13592;SDS011;6867;50.998;4.250;2024-03-02T05:31:36;1.80;;;1.03;;
13592;SDS011;6867;50.998;4.250;2024-03-02T05:34:03;3.27;;;0.97;;
13592;SDS011;6867;50.998;4.250;2024-03-02T05:36:30;2.77;;;1.00;;
13592;SDS011;6867;50.998;4.250;2024-03-02T05:38:57;3.63;;;0.93;;
13592;SDS011;6867;50.998;4.250;2024-03-02T05:41:23;1.73;;;1.10;;
13592;SDS011;6867;50.998;4.250;2024-03-02T05:43:50;1.47;;;0.90;;
13592;SDS011;6867;50.998;4.250;2024-03-02T05:46:17;2.90;;;0.90;;
13592;SDS011;6867;50.998;4.250;2024-03-02T05:48:45;2.20;;;1.40;;
13592;SDS011;6867;50.998;4.250;2024-03-02T05:51:11;1.60;;;0.80;;
13592;SDS011;6867;50.998;4.250;2024-03-02T05:53:38;1.03;;;0.80;;
13592;SDS011;6867;50.998;4.250;2024-03-02T05:56:05;1.77;;;0.70;;
13592;SDS011;6867;50.998;4.250;2024-03-02T05:58:32;2.70;;;1.27;;
13592;SDS011;6867;50.998;4.250;2024-03-02T06:01:11;3.87;;;0.80;;
13592;SDS011;6867;50.998;4.250;2024-03-02T06:03:38;3.10;;;1.10;;
13592;SDS011;6867;50.998;4.250;2024-03-02T06:06:06;1.53;;;0.80;;
13592;SDS011;6867;50.998;4.250;2024-03-02T06:08:32;5.37;;;0.80;;
13592;SDS011;6867;50.998;4.250;2024-03-02T06:11:00;4.20;;;1.00;;
13592;SDS011;6867;50.998;4.250;2024-03-02T06:13:26;3.27;;;0.70;;
13592;SDS011;6867;50.998;4.250;2024-03-02T06:15:53;1.03;;;0.80;;
13592;SDS011;6867;50.998;4.250;2024-03-02T06:18:20;1.10;;;1.00;;
13592;SDS011;6867;50.998;4.250;2024-03-02T06:20:46;2.63;;;1.07;;
13592;SDS011;6867;50.998;4.250;2024-03-02T06:23:15;4.30;;;1.33;;
13592;SDS011;6867;50.998;4.250;2024-03-02T06:25:42;5.37;;;1.00;;
13592;SDS011;6867;50.998;4.250;2024-03-02T06:28:08;5.47;;;1.10;;
13592;SDS011;6867;50.998;4.250;2024-03-02T06:30:35;3.83;;;1.23;;
13592;SDS011;6867;50.998;4.250;2024-03-02T06:33:02;3.00;;;1.30;;
13592;SDS011;6867;50.998;4.250;2024-03-02T06:35:30;7.77;;;1.20;;
13592;SDS011;6867;50.998;4.250;2024-03-02T06:37:57;3.70;;;1.30;;
13592;SDS011;6867;50.998;4.250;2024-03-02T06:40:24;6.73;;;1.30;;
13592;SDS011;6867;50.998;4.250;2024-03-02T06:42:50;3.30;;;1.20;;
13592;SDS011;6867;50.998;4.250;2024-03-02T06:45:17;3.53;;;1.30;;
13592;SDS011;6867;50.998;4.250;2024-03-02T06:47:44;4.53;;;2.10;;
13592;SDS011;6867;50.998;4.250;2024-03-02T06:50:10;6.13;;;2.40;;
13592;SDS011;6867;50.998;4.250;2024-03-02T06:52:38;5.63;;;3.50;;
13592;SDS011;6867;50.998;4.250;2024-03-02T06:55:05;9.30;;;4.13;;
13592;SDS011;6867;50.998;4.250;2024-03-02T06:57:33;6.53;;;3.90;;
13592;SDS011;6867;50.998;4.250;2024-03-02T07:00:00;5.90;;;3.03;;
13592;SDS011;6867;50.998;4.250;2024-03-02T07:02:30;4.33;;;2.70;;
13592;SDS011;6867;50.998;4.250;2024-03-02T07:04:57;7.73;;;3.03;;
13592;SDS011;6867;50.998;4.250;2024-03-02T07:07:23;4.27;;;1.67;;
13592;SDS011;6867;50.998;4.250;2024-03-02T07:09:50;3.33;;;1.83;;
13592;SDS011;6867;50.998;4.250;2024-03-02T07:12:16;7.33;;;2.33;;
13592;SDS011;6867;50.998;4.250;2024-03-02T07:14:44;4.70;;;1.90;;
13592;SDS011;6867;50.998;4.250;2024-03-02T07:17:28;5.80;;;2.20;;
13592;SDS011;6867;50.998;4.250;2024-03-02T07:19:54;4.30;;;1.30;;
13592;SDS011;6867;50.998;4.250;2024-03-02T07:22:21;5.83;;;1.47;;
13592;SDS011;6867;50.998;4.250;2024-03-02T07:24:48;5.57;;;1.93;;
13592;SDS011;6867;50.998;4.250;2024-03-02T07:27:15;4.97;;;1.30;;
13592;SDS011;6867;50.998;4.250;2024-03-02T07:29:44;2.30;;;1.10;;
13592;SDS011;6867;50.998;4.250;2024-03-02T07:32:10;7.43;;;1.50;;
13592;SDS011;6867;50.998;4.250;2024-03-02T07:34:37;3.37;;;1.40;;
13592;SDS011;6867;50.998;4.250;2024-03-02T07:37:04;9.50;;;1.47;;
13592;SDS011;6867;50.998;4.250;2024-03-02T07:39:31;3.70;;;1.73;;
13592;SDS011;6867;50.998;4.250;2024-03-02T07:41:58;4.37;;;1.60;;
13592;SDS011;6867;50.998;4.250;2024-03-02T07:44:25;10.00;;;1.60;;
13592;SDS011;6867;50.998;4.250;2024-03-02T07:46:53;5.30;;;1.73;;
13592;SDS011;6867;50.998;4.250;2024-03-02T07:49:20;5.03;;;1.70;;
13592;SDS011;6867;50.998;4.250;2024-03-02T07:51:47;3.27;;;1.80;;
13592;SDS011;6867;50.998;4.250;2024-03-02T07:54:14;6.57;;;1.90;;
13592;SDS011;6867;50.998;4.250;2024-03-02T07:56:40;3.50;;;1.83;;
13592;SDS011;6867;50.998;4.250;2024-03-02T07:59:07;7.10;;;2.30;;
13592;SDS011;6867;50.998;4.250;2024-03-02T08:01:34;10.30;;;2.73;;
13592;SDS011;6867;50.998;4.250;2024-03-02T08:04:02;6.97;;;2.13;;
13592;SDS011;6867;50.998;4.250;2024-03-02T08:06:29;8.47;;;2.50;;
13592;SDS011;6867;50.998;4.250;2024-03-02T08:08:56;6.00;;;1.83;;
13592;SDS011;6867;50.998;4.250;2024-03-02T08:11:24;6.53;;;1.77;;
13592;SDS011;6867;50.998;4.250;2024-03-02T08:13:52;4.40;;;2.30;;
13592;SDS011;6867;50.998;4.250;2024-03-02T08:16:20;10.90;;;4.70;;
13592;SDS011;6867;50.998;4.250;2024-03-02T08:18:47;11.63;;;3.80;;
13592;SDS011;6867;50.998;4.250;2024-03-02T08:21:15;14.60;;;4.47;;
13592;SDS011;6867;50.998;4.250;2024-03-02T08:23:42;8.63;;;1.70;;
13592;SDS011;6867;50.998;4.250;2024-03-02T08:26:09;10.07;;;3.10;;
13592;SDS011;6867;50.998;4.250;2024-03-02T08:28:36;4.10;;;1.57;;
13592;SDS011;6867;50.998;4.250;2024-03-02T08:31:05;4.67;;;1.43;;
13592;SDS011;6867;50.998;4.250;2024-03-02T08:33:32;4.63;;;1.20;;
13592;SDS011;6867;50.998;4.250;2024-03-02T08:35:59;4.00;;;1.23;;
13592;SDS011;6867;50.998;4.250;2024-03-02T08:38:27;4.07;;;2.17;;
13592;SDS011;6867;50.998;4.250;2024-03-02T08:40:54;4.80;;;1.50;;
13592;SDS011;6867;50.998;4.250;2024-03-02T08:43:21;6.03;;;1.50;;
13592;SDS011;6867;50.998;4.250;2024-03-02T08:45:48;5.70;;;2.10;;
13592;SDS011;6867;50.998;4.250;2024-03-02T08:48:16;6.20;;;1.30;;
13592;SDS011;6867;50.998;4.250;2024-03-02T08:50:46;3.73;;;1.23;;
13592;SDS011;6867;50.998;4.250;2024-03-02T08:53:12;3.40;;;1.07;;
13592;SDS011;6867;50.998;4.250;2024-03-02T08:55:44;2.67;;;1.10;;
13592;SDS011;6867;50.998;4.250;2024-03-02T08:58:12;2.73;;;1.20;;
13592;SDS011;6867;50.998;4.250;2024-03-02T09:00:38;9.73;;;1.20;;
13592;SDS011;6867;50.998;4.250;2024-03-02T09:03:06;2.67;;;1.20;;
13592;SDS011;6867;50.998;4.250;2024-03-02T09:05:33;5.43;;;1.50;;
13592;SDS011;6867;50.998;4.250;2024-03-02T09:08:00;6.13;;;1.10;;
13592;SDS011;6867;50.998;4.250;2024-03-02T09:10:28;1.70;;;0.97;;
13592;SDS011;6867;50.998;4.250;2024-03-02T09:12:56;3.77;;;1.50;;
13592;SDS011;6867;50.998;4.250;2024-03-02T09:15:24;6.57;;;1.80;;
13592;SDS011;6867;50.998;4.250;2024-03-02T09:17:50;5.20;;;1.27;;
13592;SDS011;6867;50.998;4.250;2024-03-02T09:20:17;6.87;;;1.63;;
13592;SDS011;6867;50.998;4.250;2024-03-02T09:22:44;5.23;;;1.23;;
13592;SDS011;6867;50.998;4.250;2024-03-02T09:25:12;4.10;;;1.10;;
13592;SDS011;6867;50.998;4.250;2024-03-02T09:27:39;2.93;;;1.00;;
13592;SDS011;6867;50.998;4.250;2024-03-02T09:30:09;8.57;;;1.30;;
13592;SDS011;6867;50.998;4.250;2024-03-02T09:32:37;5.47;;;1.37;;
13592;SDS011;6867;50.998;4.250;2024-03-02T09:35:04;5.17;;;1.30;;
13592;SDS011;6867;50.998;4.250;2024-03-02T09:37:30;2.43;;;1.20;;
13592;SDS011;6867;50.998;4.250;2024-03-02T09:39:57;3.03;;;0.80;;
13592;SDS011;6867;50.998;4.250;2024-03-02T09:42:24;5.77;;;1.70;;
13592;SDS011;6867;50.998;4.250;2024-03-02T09:44:51;5.83;;;1.23;;
13592;SDS011;6867;50.998;4.250;2024-03-02T09:47:19;4.20;;;1.47;;
13592;SDS011;6867;50.998;4.250;2024-03-02T09:49:46;3.43;;;1.23;;
13592;SDS011;6867;50.998;4.250;2024-03-02T09:52:13;9.40;;;2.23;;
13592;SDS011;6867;50.998;4.250;2024-03-02T09:54:39;5.83;;;2.13;;
13592;SDS011;6867;50.998;4.250;2024-03-02T09:57:06;5.70;;;1.53;;
13592;SDS011;6867;50.998;4.250;2024-03-02T09:59:33;5.73;;;1.37;;
13592;SDS011;6867;50.998;4.250;2024-03-02T10:02:00;3.93;;;1.30;;
13592;SDS011;6867;50.998;4.250;2024-03-02T10:04:29;8.77;;;1.97;;
13592;SDS011;6867;50.998;4.250;2024-03-02T10:07:09;3.73;;;1.63;;
13592;SDS011;6867;50.998;4.250;2024-03-02T10:09:37;6.40;;;1.70;;
13592;SDS011;6867;50.998;4.250;2024-03-02T10:12:04;3.53;;;1.80;;
13592;SDS011;6867;50.998;4.250;2024-03-02T10:14:32;4.63;;;1.27;;
13592;SDS011;6867;50.998;4.250;2024-03-02T10:17:02;4.70;;;1.30;;
13592;SDS011;6867;50.998;4.250;2024-03-02T10:19:31;2.60;;;1.10;;
13592;SDS011;6867;50.998;4.250;2024-03-02T10:22:00;4.33;;;1.30;;
13592;SDS011;6867;50.998;4.250;2024-03-02T10:24:28;3.97;;;1.80;;
13592;SDS011;6867;50.998;4.250;2024-03-02T10:27:02;6.53;;;1.03;;
13592;SDS011;6867;50.998;4.250;2024-03-02T10:29:36;3.87;;;1.07;;
13592;SDS011;6867;50.998;4.250;2024-03-02T10:32:04;3.73;;;1.03;;
13592;SDS011;6867;50.998;4.250;2024-03-02T10:34:33;1.37;;;0.87;;
13592;SDS011;6867;50.998;4.250;2024-03-02T10:36:59;6.40;;;1.13;;
13592;SDS011;6867;50.998;4.250;2024-03-02T10:39:27;6.20;;;1.00;;
13592;SDS011;6867;50.998;4.250;2024-03-02T10:41:55;5.13;;;1.17;;
13592;SDS011;6867;50.998;4.250;2024-03-02T10:44:22;4.57;;;1.10;;
13592;SDS011;6867;50.998;4.250;2024-03-02T10:46:50;9.63;;;1.53;;
13592;SDS011;6867;50.998;4.250;2024-03-02T10:49:19;5.13;;;1.10;;
13592;SDS011;6867;50.998;4.250;2024-03-02T10:51:50;6.40;;;1.20;;
13592;SDS011;6867;50.998;4.250;2024-03-02T10:54:17;3.77;;;1.20;;
13592;SDS011;6867;50.998;4.250;2024-03-02T10:56:50;2.37;;;1.10;;
13592;SDS011;6867;50.998;4.250;2024-03-02T10:59:21;5.73;;;1.53;;
13592;SDS011;6867;50.998;4.250;2024-03-02T11:01:54;6.37;;;2.10;;
13592;SDS011;6867;50.998;4.250;2024-03-02T11:04:24;4.77;;;1.47;;
13592;SDS011;6867;50.998;4.250;2024-03-02T11:06:54;5.03;;;1.23;;
13592;SDS011;6867;50.998;4.250;2024-03-02T11:09:26;5.50;;;2.20;;
13592;SDS011;6867;50.998;4.250;2024-03-02T11:12:00;10.88;;;2.45;;
13592;SDS011;6867;50.998;4.250;2024-03-02T11:14:30;2.87;;;1.10;;
13592;SDS011;6867;50.998;4.250;2024-03-02T11:16:58;3.83;;;1.20;;
13592;SDS011;6867;50.998;4.250;2024-03-02T11:19:28;5.78;;;3.00;;
13592;SDS011;6867;50.998;4.250;2024-03-02T11:21:58;5.17;;;3.30;;
13592;SDS011;6867;50.998;4.250;2024-03-02T11:24:29;6.68;;;5.40;;
13592;SDS011;6867;50.998;4.250;2024-03-02T11:26:58;3.97;;;1.95;;
13592;SDS011;6867;50.998;4.250;2024-03-02T11:32:13;11.35;;;2.35;;
13592;SDS011;6867;50.998;4.250;2024-03-02T11:34:41;6.50;;;1.65;;
13592;SDS011;6867;50.998;4.250;2024-03-02T11:37:13;4.70;;;1.42;;
13592;SDS011;6867;50.998;4.250;2024-03-02T11:39:40;10.57;;;4.65;;
13592;SDS011;6867;50.998;4.250;2024-03-02T11:42:09;7.45;;;1.45;;
13592;SDS011;6867;50.998;4.250;2024-03-02T11:44:39;9.00;;;2.38;;
13592;SDS011;6867;50.998;4.250;2024-03-02T11:47:07;7.53;;;2.40;;
13592;SDS011;6867;50.998;4.250;2024-03-02T11:49:37;6.35;;;1.27;;
13592;SDS011;6867;50.998;4.250;2024-03-02T11:52:05;4.63;;;1.70;;
13592;SDS011;6867;50.998;4.250;2024-03-02T11:54:34;4.78;;;1.55;;
13592;SDS011;6867;50.998;4.250;2024-03-02T11:57:04;4.05;;;1.60;;
13592;SDS011;6867;50.998;4.250;2024-03-02T11:59:32;5.22;;;1.20;;
13592;SDS011;6867;50.998;4.250;2024-03-02T12:01:59;4.93;;;1.00;;
13592;SDS011;6867;50.998;4.250;2024-03-02T12:04:26;3.45;;;1.25;;
13592;SDS011;6867;50.998;4.250;2024-03-02T12:06:54;4.82;;;1.33;;
13592;SDS011;6867;50.998;4.250;2024-03-02T12:09:23;5.15;;;1.30;;
13592;SDS011;6867;50.998;4.250;2024-03-02T12:12:02;4.03;;;1.00;;
13592;SDS011;6867;50.998;4.250;2024-03-02T12:14:30;4.35;;;1.05;;
13592;SDS011;6867;50.998;4.250;2024-03-02T12:16:57;3.80;;;1.08;;
13592;SDS011;6867;50.998;4.250;2024-03-02T12:19:24;3.53;;;1.35;;
13592;SDS011;6867;50.998;4.250;2024-03-02T12:21:51;4.63;;;1.10;;
13592;SDS011;6867;50.998;4.250;2024-03-02T12:24:18;2.08;;;1.02;;
13592;SDS011;6867;50.998;4.250;2024-03-02T12:26:45;4.40;;;1.38;;
13592;SDS011;6867;50.998;4.250;2024-03-02T12:29:14;2.92;;;0.95;;
13592;SDS011;6867;50.998;4.250;2024-03-02T12:31:44;5.38;;;1.38;;
13592;SDS011;6867;50.998;4.250;2024-03-02T12:34:12;3.95;;;0.90;;
13592;SDS011;6867;50.998;4.250;2024-03-02T12:36:39;3.17;;;1.08;;
13592;SDS011;6867;50.998;4.250;2024-03-02T12:39:07;3.72;;;0.80;;
13592;SDS011;6867;50.998;4.250;2024-03-02T12:41:35;2.65;;;0.98;;
13592;SDS011;6867;50.998;4.250;2024-03-02T12:44:01;5.57;;;1.05;;
13592;SDS011;6867;50.998;4.250;2024-03-02T12:46:29;3.47;;;0.85;;
13592;SDS011;6867;50.998;4.250;2024-03-02T12:48:56;4.90;;;1.25;;
13592;SDS011;6867;50.998;4.250;2024-03-02T12:51:24;7.22;;;1.27;;
13592;SDS011;6867;50.998;4.250;2024-03-02T12:53:53;4.13;;;1.10;;
13592;SDS011;6867;50.998;4.250;2024-03-02T12:56:20;3.47;;;1.00;;
13592;SDS011;6867;50.998;4.250;2024-03-02T12:58:47;3.75;;;0.90;;
13592;SDS011;6867;50.998;4.250;2024-03-02T13:01:14;2.45;;;0.63;;
13592;SDS011;6867;50.998;4.250;2024-03-02T13:03:45;4.00;;;1.20;;
13592;SDS011;6867;50.998;4.250;2024-03-02T13:06:14;5.60;;;1.02;;
13592;SDS011;6867;50.998;4.250;2024-03-02T13:08:42;2.75;;;0.60;;
13592;SDS011;6867;50.998;4.250;2024-03-02T13:11:09;3.83;;;0.98;;
13592;SDS011;6867;50.998;4.250;2024-03-02T13:13:36;2.58;;;0.90;;
13592;SDS011;6867;50.998;4.250;2024-03-02T13:16:04;2.83;;;1.13;;
13592;SDS011;6867;50.998;4.250;2024-03-02T13:18:34;5.00;;;1.00;;
13592;SDS011;6867;50.998;4.250;2024-03-02T13:21:02;3.80;;;1.08;;
13592;SDS011;6867;50.998;4.250;2024-03-02T13:23:29;2.72;;;1.20;;
13592;SDS011;6867;50.998;4.250;2024-03-02T13:25:56;3.75;;;0.90;;
13592;SDS011;6867;50.998;4.250;2024-03-02T13:28:23;6.65;;;0.88;;
13592;SDS011;6867;50.998;4.250;2024-03-02T13:30:50;2.53;;;0.90;;
13592;SDS011;6867;50.998;4.250;2024-03-02T13:33:16;5.07;;;0.70;;
13592;SDS011;6867;50.998;4.250;2024-03-02T13:35:47;3.55;;;1.20;;
13592;SDS011;6867;50.998;4.250;2024-03-02T13:38:16;2.92;;;0.68;;
13592;SDS011;6867;50.998;4.250;2024-03-02T13:40:43;3.30;;;0.90;;
13592;SDS011;6867;50.998;4.250;2024-03-02T13:43:10;4.00;;;1.00;;
13592;SDS011;6867;50.998;4.250;2024-03-02T13:45:37;2.55;;;0.80;;
13592;SDS011;6867;50.998;4.250;2024-03-02T13:48:04;2.38;;;0.85;;
13592;SDS011;6867;50.998;4.250;2024-03-02T13:50:31;2.63;;;1.08;;
13592;SDS011;6867;50.998;4.250;2024-03-02T13:52:58;8.98;;;3.20;;
13592;SDS011;6867;50.998;4.250;2024-03-02T13:55:26;3.03;;;1.60;;
13592;SDS011;6867;50.998;4.250;2024-03-02T13:57:53;4.83;;;1.47;;
13592;SDS011;6867;50.998;4.250;2024-03-02T14:00:19;3.97;;;1.30;;
13592;SDS011;6867;50.998;4.250;2024-03-02T14:02:46;5.73;;;2.27;;
13592;SDS011;6867;50.998;4.250;2024-03-02T14:05:15;2.00;;;1.00;;
13592;SDS011;6867;50.998;4.250;2024-03-02T14:07:42;2.87;;;1.00;;
13592;SDS011;6867;50.998;4.250;2024-03-02T14:10:09;2.10;;;0.80;;
13592;SDS011;6867;50.998;4.250;2024-03-02T14:12:38;2.67;;;0.90;;
13592;SDS011;6867;50.998;4.250;2024-03-02T14:15:05;4.83;;;1.27;;
13592;SDS011;6867;50.998;4.250;2024-03-02T14:17:32;4.57;;;1.00;;
13592;SDS011;6867;50.998;4.250;2024-03-02T14:20:00;1.77;;;1.00;;
13592;SDS011;6867;50.998;4.250;2024-03-02T14:22:26;5.32;;;1.85;;
13592;SDS011;6867;50.998;4.250;2024-03-02T14:24:53;3.77;;;1.30;;
13592;SDS011;6867;50.998;4.250;2024-03-02T14:27:20;2.53;;;0.90;;
13592;SDS011;6867;50.998;4.250;2024-03-02T14:29:48;1.60;;;1.17;;
13592;SDS011;6867;50.998;4.250;2024-03-02T14:32:15;1.27;;;0.93;;
13592;SDS011;6867;50.998;4.250;2024-03-02T14:34:41;1.50;;;0.80;;
13592;SDS011;6867;50.998;4.250;2024-03-02T14:37:09;3.60;;;0.97;;
13592;SDS011;6867;50.998;4.250;2024-03-02T14:39:36;2.23;;;1.07;;
13592;SDS011;6867;50.998;4.250;2024-03-02T14:42:02;2.20;;;1.00;;
13592;SDS011;6867;50.998;4.250;2024-03-02T14:44:29;2.23;;;0.83;;
13592;SDS011;6867;50.998;4.250;2024-03-02T14:46:57;2.73;;;1.00;;
13592;SDS011;6867;50.998;4.250;2024-03-02T14:49:24;2.93;;;1.30;;
13592;SDS011;6867;50.998;4.250;2024-03-02T14:51:51;1.13;;;0.97;;
13592;SDS011;6867;50.998;4.250;2024-03-02T14:54:18;1.87;;;1.00;;
13592;SDS011;6867;50.998;4.250;2024-03-02T14:56:44;1.70;;;1.03;;
13592;SDS011;6867;50.998;4.250;2024-03-02T14:59:11;1.00;;;0.90;;
13592;SDS011;6867;50.998;4.250;2024-03-02T15:01:38;2.37;;;0.83;;
13592;SDS011;6867;50.998;4.250;2024-03-02T15:04:06;3.17;;;0.97;;
13592;SDS011;6867;50.998;4.250;2024-03-02T15:06:33;1.77;;;0.73;;